SWA472 KPHL-KDEN
Flight info
| Callsign | SWA472 |
|---|---|
| Flight time | N/A |
| Altitude | 38000 |
| Route | PTW SARAA RAV PSB J60 DJB CPONE JOT J60 IOW DSM OBH BRWRY LAWGR4 |
| Aircraft | B38M/M-SADE2E3GHIJ4J7P2RWZ/LB1D1 |
Departure
| Time | N/A |
|---|---|
| Airport | Philadelphia International Airport (KPHL) |
Arrival
| Time | 2026-05-03 22:34 |
|---|---|
| Airport | Denver International Airport (KDEN) |
| Time | Latitude | Longitude | Altitude | Speed | Heading |
|---|---|---|---|---|---|
| 2026-05-03 21:58 | 40.77815 | -100.70782 | 37952 ft | 343 kts | 261° |
| 2026-05-03 21:59 | 40.76753 | -100.76980 | 37950 ft | 346 kts | 262° |
| 2026-05-03 21:59 | 40.75687 | -100.83245 | 37942 ft | 353 kts | 262° |
| 2026-05-03 22:00 | 40.74598 | -100.89631 | 37942 ft | 360 kts | 261° |
| 2026-05-03 22:00 | 40.73484 | -100.96144 | 37941 ft | 367 kts | 261° |
| 2026-05-03 22:01 | 40.72345 | -101.02782 | 37945 ft | 375 kts | 261° |
| 2026-05-03 22:01 | 40.71184 | -101.09524 | 37944 ft | 378 kts | 261° |
| 2026-05-03 22:02 | 40.70011 | -101.16267 | 37944 ft | 377 kts | 261° |
| 2026-05-03 22:02 | 40.68832 | -101.23014 | 37945 ft | 378 kts | 261° |
| 2026-05-03 22:03 | 40.67648 | -101.29767 | 37950 ft | 378 kts | 260° |
| 2026-05-03 22:03 | 40.66461 | -101.36516 | 37955 ft | 379 kts | 260° |
| 2026-05-03 22:04 | 40.65277 | -101.43226 | 37955 ft | 379 kts | 260° |
| 2026-05-03 22:04 | 40.64080 | -101.49983 | 37948 ft | 379 kts | 260° |
| 2026-05-03 22:05 | 40.62878 | -101.56738 | 37939 ft | 379 kts | 260° |
| 2026-05-03 22:05 | 40.61672 | -101.63493 | 37936 ft | 379 kts | 260° |
| 2026-05-03 22:06 | 40.60462 | -101.70249 | 37935 ft | 379 kts | 260° |
| 2026-05-03 22:06 | 40.59248 | -101.77000 | 37934 ft | 379 kts | 260° |
| 2026-05-03 22:07 | 40.58032 | -101.83741 | 37933 ft | 379 kts | 259° |
| 2026-05-03 22:07 | 40.56810 | -101.90492 | 37934 ft | 380 kts | 259° |
| 2026-05-03 22:08 | 40.55581 | -101.97251 | 37935 ft | 380 kts | 259° |
| 2026-05-03 22:08 | 40.54333 | -102.03994 | 37934 ft | 380 kts | 259° |
| 2026-05-03 22:09 | 40.53084 | -102.10737 | 37934 ft | 380 kts | 259° |
| 2026-05-03 22:10 | 40.51200 | -102.20860 | 37935 ft | 380 kts | 259° |
| 2026-05-03 22:10 | 40.49938 | -102.27610 | 37937 ft | 380 kts | 259° |
| 2026-05-03 22:11 | 40.48682 | -102.34311 | 37945 ft | 380 kts | 259° |
| 2026-05-03 22:11 | 40.48040 | -102.37721 | 37636 ft | 378 kts | 259° |
| 2026-05-03 22:11 | 40.47408 | -102.41078 | 36905 ft | 381 kts | 259° |
| 2026-05-03 22:11 | 40.46770 | -102.44460 | 36243 ft | 381 kts | 259° |
| 2026-05-03 22:12 | 40.46132 | -102.47838 | 35559 ft | 382 kts | 259° |
| 2026-05-03 22:12 | 40.45499 | -102.51182 | 34865 ft | 383 kts | 259° |
| 2026-05-03 22:12 | 40.44853 | -102.54586 | 34161 ft | 385 kts | 259° |
| 2026-05-03 22:12 | 40.44207 | -102.57985 | 33471 ft | 385 kts | 259° |
| 2026-05-03 22:13 | 40.43553 | -102.61425 | 32751 ft | 390 kts | 259° |
| 2026-05-03 22:13 | 40.42896 | -102.64875 | 32040 ft | 391 kts | 259° |
| 2026-05-03 22:13 | 40.42232 | -102.68326 | 31523 ft | 387 kts | 259° |
| 2026-05-03 22:13 | 40.41571 | -102.71762 | 31186 ft | 391 kts | 259° |
| 2026-05-03 22:14 | 40.40902 | -102.75235 | 30821 ft | 392 kts | 258° |
| 2026-05-03 22:14 | 40.40235 | -102.78690 | 30413 ft | 390 kts | 258° |
| 2026-05-03 22:14 | 40.39569 | -102.82134 | 29984 ft | 388 kts | 258° |
| 2026-05-03 22:14 | 40.38906 | -102.85556 | 29562 ft | 386 kts | 258° |
| 2026-05-03 22:15 | 40.38248 | -102.88950 | 29144 ft | 384 kts | 258° |
| 2026-05-03 22:15 | 40.37588 | -102.92346 | 28727 ft | 383 kts | 258° |
| 2026-05-03 22:15 | 40.36933 | -102.95714 | 28314 ft | 381 kts | 258° |
| 2026-05-03 22:15 | 40.36280 | -102.99067 | 27902 ft | 379 kts | 258° |
| 2026-05-03 22:16 | 40.35629 | -103.02417 | 27441 ft | 378 kts | 258° |
| 2026-05-03 22:16 | 40.34983 | -103.05743 | 27047 ft | 376 kts | 258° |
| 2026-05-03 22:16 | 40.34337 | -103.09061 | 26651 ft | 375 kts | 258° |
| 2026-05-03 22:16 | 40.33691 | -103.12372 | 26250 ft | 374 kts | 258° |
| 2026-05-03 22:17 | 40.33048 | -103.15664 | 25843 ft | 372 kts | 258° |
| 2026-05-03 22:17 | 40.32407 | -103.18944 | 25440 ft | 371 kts | 258° |
| 2026-05-03 22:17 | 40.31767 | -103.22213 | 25036 ft | 370 kts | 258° |
| 2026-05-03 22:17 | 40.31128 | -103.25469 | 24628 ft | 369 kts | 257° |
| 2026-05-03 22:18 | 40.30485 | -103.28722 | 24185 ft | 367 kts | 257° |
| 2026-05-03 22:18 | 40.29852 | -103.31907 | 23776 ft | 365 kts | 257° |
| 2026-05-03 22:18 | 40.29213 | -103.35123 | 23394 ft | 364 kts | 257° |
| 2026-05-03 22:18 | 40.28565 | -103.38373 | 22996 ft | 363 kts | 257° |
| 2026-05-03 22:19 | 40.27937 | -103.41523 | 22607 ft | 361 kts | 257° |
| 2026-05-03 22:19 | 40.27304 | -103.44692 | 22217 ft | 359 kts | 257° |
| 2026-05-03 22:19 | 40.26672 | -103.47848 | 21825 ft | 358 kts | 257° |
| 2026-05-03 22:19 | 40.26041 | -103.50995 | 21434 ft | 356 kts | 257° |
| 2026-05-03 22:20 | 40.25413 | -103.54127 | 21050 ft | 354 kts | 257° |
| 2026-05-03 22:20 | 40.24792 | -103.57239 | 20638 ft | 352 kts | 258° |
| 2026-05-03 22:20 | 40.24180 | -103.60341 | 20240 ft | 350 kts | 258° |
| 2026-05-03 22:20 | 40.23575 | -103.63401 | 19870 ft | 347 kts | 258° |
| 2026-05-03 22:21 | 40.22967 | -103.66465 | 19494 ft | 347 kts | 258° |
| 2026-05-03 22:21 | 40.22361 | -103.69517 | 19120 ft | 346 kts | 258° |
| 2026-05-03 22:21 | 40.21756 | -103.72558 | 18744 ft | 344 kts | 258° |
| 2026-05-03 22:21 | 40.21154 | -103.75581 | 18369 ft | 342 kts | 258° |
| 2026-05-03 22:22 | 40.20558 | -103.78571 | 17992 ft | 338 kts | 258° |
| 2026-05-03 22:22 | 40.19966 | -103.81533 | 17628 ft | 335 kts | 258° |
| 2026-05-03 22:22 | 40.19379 | -103.84464 | 17262 ft | 332 kts | 258° |
| 2026-05-03 22:22 | 40.18796 | -103.87374 | 16903 ft | 329 kts | 258° |
| 2026-05-03 22:23 | 40.18216 | -103.90245 | 16528 ft | 326 kts | 256° |
| 2026-05-03 22:23 | 40.17295 | -103.92989 | 16022 ft | 331 kts | 245° |
| 2026-05-03 22:23 | 40.16237 | -103.95659 | 15606 ft | 330 kts | 245° |
| 2026-05-03 22:23 | 40.15189 | -103.98325 | 15160 ft | 330 kts | 245° |
| 2026-05-03 22:24 | 40.14150 | -104.00974 | 14708 ft | 323 kts | 245° |
| 2026-05-03 22:24 | 40.13141 | -104.03543 | 14280 ft | 314 kts | 245° |
| 2026-05-03 22:24 | 40.12159 | -104.06044 | 13837 ft | 305 kts | 245° |
| 2026-05-03 22:24 | 40.11203 | -104.08477 | 13415 ft | 297 kts | 244° |
| 2026-05-03 22:25 | 40.10251 | -104.10848 | 13016 ft | 295 kts | 240° |
| 2026-05-03 22:25 | 40.08856 | -104.12771 | 12907 ft | 296 kts | 214° |
| 2026-05-03 22:25 | 40.06966 | -104.13779 | 12969 ft | 290 kts | 192° |
| 2026-05-03 22:25 | 40.05028 | -104.13937 | 12993 ft | 277 kts | 184° |
| 2026-05-03 22:26 | 40.03139 | -104.14109 | 12990 ft | 260 kts | 197° |
| 2026-05-03 22:26 | 40.01576 | -104.15113 | 12932 ft | 247 kts | 222° |
| 2026-05-03 22:26 | 40.00334 | -104.16632 | 12820 ft | 250 kts | 227° |
| 2026-05-03 22:26 | 39.99101 | -104.18241 | 12705 ft | 251 kts | 227° |
| 2026-05-03 22:27 | 39.98268 | -104.19338 | 12601 ft | 253 kts | 227° |
| 2026-05-03 22:27 | 39.97214 | -104.20726 | 12382 ft | 253 kts | 227° |
| 2026-05-03 22:27 | 39.95987 | -104.22351 | 12142 ft | 248 kts | 227° |
| 2026-05-03 22:27 | 39.94805 | -104.23925 | 11937 ft | 238 kts | 227° |
| 2026-05-03 22:28 | 39.94415 | -104.24448 | 11865 ft | 237 kts | 227° |
| 2026-05-03 22:28 | 39.93133 | -104.26166 | 11590 ft | 234 kts | 227° |
| 2026-05-03 22:28 | 39.92013 | -104.27673 | 11359 ft | 235 kts | 227° |
| 2026-05-03 22:28 | 39.90881 | -104.29203 | 11122 ft | 235 kts | 227° |
| 2026-05-03 22:29 | 39.89733 | -104.30755 | 10870 ft | 235 kts | 227° |
| 2026-05-03 22:29 | 39.88616 | -104.32276 | 10631 ft | 236 kts | 228° |
| 2026-05-03 22:29 | 39.87760 | -104.34067 | 10351 ft | 234 kts | 253° |
| 2026-05-03 22:29 | 39.87549 | -104.36124 | 10119 ft | 226 kts | 269° |
| 2026-05-03 22:30 | 39.87539 | -104.38150 | 10037 ft | 222 kts | 270° |
| 2026-05-03 22:30 | 39.87551 | -104.40164 | 9899 ft | 223 kts | 270° |
| 2026-05-03 22:30 | 39.87566 | -104.42176 | 9647 ft | 219 kts | 270° |
| 2026-05-03 22:30 | 39.87581 | -104.44121 | 9391 ft | 212 kts | 271° |
| 2026-05-03 22:31 | 39.87596 | -104.46041 | 9030 ft | 212 kts | 270° |
| 2026-05-03 22:31 | 39.87613 | -104.47888 | 8542 ft | 193 kts | 256° |
| 2026-05-03 22:31 | 39.87609 | -104.49012 | 8216 ft | 182 kts | 272° |
| 2026-05-03 22:31 | 39.87637 | -104.50566 | 7966 ft | 162 kts | 270° |
| 2026-05-03 22:32 | 39.87654 | -104.52003 | 7540 ft | 157 kts | 270° |
| 2026-05-03 22:32 | 39.87666 | -104.53399 | 7129 ft | 151 kts | 272° |
| 2026-05-03 22:32 | 39.87679 | -104.54757 | 6752 ft | 149 kts | 271° |
| 2026-05-03 22:32 | 39.87690 | -104.56120 | 6419 ft | 158 kts | 271° |
| 2026-05-03 22:33 | 39.87698 | -104.57261 | 6197 ft | 165 kts | 271° |
| 2026-05-03 22:33 | 39.87708 | -104.58712 | 5872 ft | 156 kts | 271° |
| 2026-05-03 22:33 | 39.87718 | -104.60130 | 5566 ft | 158 kts | 271° |
| 2026-05-03 22:33 | 39.87724 | -104.61605 | 5378 ft | 168 kts | 270° |
| 2026-05-03 22:34 | 39.87732 | -104.63073 | 5328 ft | 150 kts | 271° |
| 2026-05-03 22:34 | 39.87738 | -104.64031 | 5334 ft | 45 kts | 270° |
| 2026-05-03 22:34 | 39.87730 | -104.64351 | 5339 ft | 24 kts | 261° |
| 2026-05-03 22:34 | 39.87680 | -104.64564 | 5342 ft | 28 kts | 242° |
| 2026-05-03 22:35 | 39.87584 | -104.64814 | 5346 ft | 32 kts | 258° |
| 2026-05-03 22:35 | 39.87581 | -104.65040 | 5349 ft | 18 kts | 270° |
| 2026-05-03 22:35 | 39.87582 | -104.65201 | 5351 ft | 17 kts | 270° |
| 2026-05-03 22:35 | 39.87583 | -104.65355 | 5353 ft | 17 kts | 270° |
| 2026-05-03 22:36 | 39.87584 | -104.65503 | 5355 ft | 16 kts | 271° |
| 2026-05-03 22:36 | 39.87586 | -104.65645 | 5357 ft | 15 kts | 271° |
| 2026-05-03 22:36 | 39.87587 | -104.65781 | 5359 ft | 15 kts | 271° |
| 2026-05-03 22:36 | 39.87589 | -104.65911 | 5360 ft | 14 kts | 271° |
| 2026-05-03 22:37 | 39.87591 | -104.66054 | 5362 ft | 19 kts | 271° |
| 2026-05-03 22:37 | 39.87537 | -104.66210 | 5364 ft | 24 kts | 187° |
| 2026-05-03 22:37 | 39.87340 | -104.66214 | 5365 ft | 31 kts | 180° |
| 2026-05-03 22:37 | 39.87124 | -104.66217 | 5369 ft | 31 kts | 180° |
| 2026-05-03 22:38 | 39.86916 | -104.66220 | 5374 ft | 29 kts | 180° |
| 2026-05-03 22:38 | 39.86719 | -104.66221 | 5379 ft | 27 kts | 180° |
| 2026-05-03 22:38 | 39.86536 | -104.66223 | 5383 ft | 27 kts | 180° |
| 2026-05-03 22:38 | 39.86341 | -104.66225 | 5384 ft | 30 kts | 180° |
| 2026-05-03 22:39 | 39.86132 | -104.66227 | 5386 ft | 30 kts | 180° |
| 2026-05-03 22:39 | 39.86066 | -104.66231 | 5388 ft | 24 kts | 193° |